createdAt,value
2022-10-09T00:10:47.233Z,12.19
2022-10-09T00:25:57.102Z,12.19
2022-10-09T00:41:03.092Z,12.06
2022-10-09T00:56:09.369Z,11.81
2022-10-09T01:11:24.230Z,11.75
2022-10-09T01:26:52.039Z,11.56
2022-10-09T01:41:58.532Z,11.06
2022-10-09T01:57:06.744Z,10.75
2022-10-09T02:12:12.727Z,10.50
2022-10-09T02:27:20.429Z,10.44
2022-10-09T02:42:26.336Z,10.25
2022-10-09T02:57:32.481Z,10.13
2022-10-09T03:12:38.027Z,10.06
2022-10-09T03:27:43.701Z,10.13
2022-10-09T03:42:49.595Z,10.06
2022-10-09T03:57:55.519Z,10.00
2022-10-09T04:13:01.104Z,10.50
2022-10-09T04:28:06.774Z,10.69
2022-10-09T04:43:12.331Z,10.94
2022-10-09T04:58:17.985Z,11.00
2022-10-09T05:13:23.520Z,10.94
2022-10-09T05:28:29.499Z,11.00
2022-10-09T05:43:37.023Z,10.94
2022-10-09T05:58:42.709Z,11.13
2022-10-09T06:13:48.893Z,10.94
2022-10-09T06:28:55.077Z,11.25
2022-10-09T06:44:02.194Z,11.19
2022-10-09T06:59:09.192Z,11.38
2022-10-09T07:14:16.129Z,11.44
2022-10-09T07:29:21.960Z,11.19
2022-10-09T07:44:27.635Z,11.31
2022-10-09T07:59:33.215Z,11.69
2022-10-09T08:14:38.884Z,11.69
2022-10-09T08:29:44.517Z,11.88
2022-10-09T08:44:50.654Z,12.13
2022-10-09T08:59:56.444Z,12.13
2022-10-09T09:15:34.401Z,12.19
2022-10-09T09:30:45.837Z,12.69
2022-10-09T09:45:55.107Z,13.25
2022-10-09T10:01:03.694Z,13.06
2022-10-09T10:16:12.666Z,13.13
2022-10-09T10:31:28.070Z,13.06
2022-10-09T10:46:39.954Z,13.25
2022-10-09T11:01:54.440Z,13.44
2022-10-09T11:17:08.259Z,13.63
2022-10-09T11:32:19.864Z,13.69
2022-10-09T11:47:32.492Z,13.94
2022-10-09T12:02:39.224Z,14.19
2022-10-09T12:17:50.736Z,14.31
2022-10-09T12:33:03.884Z,14.50
2022-10-09T12:48:14.844Z,14.44
2022-10-09T13:03:27.951Z,14.50
2022-10-09T13:18:33.979Z,14.56
2022-10-09T13:33:39.690Z,14.56
2022-10-09T13:48:45.413Z,14.56
2022-10-09T14:03:51.999Z,14.31
2022-10-09T14:18:59.943Z,14.31
2022-10-09T14:34:06.047Z,14.13
2022-10-09T14:49:12.843Z,13.88
2022-10-09T15:04:18.742Z,13.75
2022-10-09T15:19:24.744Z,13.81
2022-10-09T15:34:31.170Z,13.88
2022-10-09T15:49:36.875Z,13.81
2022-10-09T16:04:42.663Z,13.63
2022-10-09T16:19:48.449Z,13.56
2022-10-09T16:34:54.206Z,13.38
2022-10-09T16:49:59.953Z,13.31
2022-10-09T17:05:06.787Z,13.31
2022-10-09T17:20:13.357Z,13.44
2022-10-09T17:35:19.511Z,13.25
2022-10-09T17:50:25.643Z,13.25
2022-10-09T18:05:32.008Z,13.19
2022-10-09T18:20:38.514Z,13.13
2022-10-09T18:35:44.170Z,13.13
2022-10-09T18:50:51.143Z,13.06
2022-10-09T19:05:57.054Z,13.06
2022-10-09T19:21:03.121Z,13.06
2022-10-09T19:36:11.879Z,12.88
2022-10-09T19:51:22.104Z,12.88
2022-10-09T20:06:28.260Z,12.88
2022-10-09T20:21:35.047Z,12.81
2022-10-09T20:36:40.884Z,12.88
2022-10-09T20:51:46.900Z,12.75
2022-10-09T21:06:53.081Z,12.75
2022-10-09T21:21:58.979Z,12.69
2022-10-09T21:37:22.056Z,12.69
2022-10-09T21:52:28.690Z,12.75
2022-10-09T22:07:34.719Z,12.63
2022-10-09T22:22:40.758Z,12.63
2022-10-09T22:37:46.361Z,12.75
2022-10-09T22:52:52.335Z,12.81
2022-10-09T23:07:58.535Z,12.88
2022-10-09T23:23:04.047Z,12.94
2022-10-09T23:38:09.626Z,12.88
2022-10-09T23:53:15.241Z,12.88
